sensor_id;sensor_type;location;lat;lon;timestamp;P1;durP1;ratioP1;P2;durP2;ratioP2
35294;SDS011;21413;48.032;7.764;2023-03-17T00:01:10;5.10;;;4.80;;
35294;SDS011;21413;48.032;7.764;2023-03-17T00:03:41;5.60;;;4.87;;
35294;SDS011;21413;48.032;7.764;2023-03-17T00:06:16;5.65;;;4.72;;
35294;SDS011;21413;48.032;7.764;2023-03-17T00:08:43;7.57;;;4.40;;
35294;SDS011;21413;48.032;7.764;2023-03-17T00:11:11;5.73;;;5.23;;
35294;SDS011;21413;48.032;7.764;2023-03-17T00:13:38;10.80;;;4.90;;
35294;SDS011;21413;48.032;7.764;2023-03-17T00:16:05;6.10;;;5.15;;
35294;SDS011;21413;48.032;7.764;2023-03-17T00:18:37;6.30;;;5.23;;
35294;SDS011;21413;48.032;7.764;2023-03-17T00:21:03;5.80;;;5.32;;
35294;SDS011;21413;48.032;7.764;2023-03-17T00:23:32;9.20;;;4.83;;
35294;SDS011;21413;48.032;7.764;2023-03-17T00:25:59;5.97;;;5.55;;
35294;SDS011;21413;48.032;7.764;2023-03-17T00:28:26;6.43;;;5.75;;
35294;SDS011;21413;48.032;7.764;2023-03-17T00:30:53;6.03;;;5.50;;
35294;SDS011;21413;48.032;7.764;2023-03-17T00:33:23;5.73;;;5.03;;
35294;SDS011;21413;48.032;7.764;2023-03-17T00:35:50;8.03;;;6.03;;
35294;SDS011;21413;48.032;7.764;2023-03-17T00:38:19;7.53;;;6.13;;
35294;SDS011;21413;48.032;7.764;2023-03-17T00:40:48;7.45;;;6.15;;
35294;SDS011;21413;48.032;7.764;2023-03-17T00:43:15;6.00;;;5.60;;
35294;SDS011;21413;48.032;7.764;2023-03-17T00:45:41;16.37;;;5.80;;
35294;SDS011;21413;48.032;7.764;2023-03-17T00:48:20;6.17;;;5.67;;
35294;SDS011;21413;48.032;7.764;2023-03-17T00:50:47;6.70;;;6.10;;
35294;SDS011;21413;48.032;7.764;2023-03-17T00:53:15;6.20;;;5.60;;
35294;SDS011;21413;48.032;7.764;2023-03-17T00:55:41;6.63;;;5.90;;
35294;SDS011;21413;48.032;7.764;2023-03-17T01:00:37;5.60;;;5.20;;
35294;SDS011;21413;48.032;7.764;2023-03-17T01:03:03;5.77;;;5.37;;
35294;SDS011;21413;48.032;7.764;2023-03-17T01:05:29;7.27;;;5.40;;
35294;SDS011;21413;48.032;7.764;2023-03-17T01:07:55;7.63;;;4.90;;
35294;SDS011;21413;48.032;7.764;2023-03-17T01:10:24;5.57;;;5.17;;
35294;SDS011;21413;48.032;7.764;2023-03-17T01:12:51;5.33;;;4.97;;
35294;SDS011;21413;48.032;7.764;2023-03-17T01:15:17;6.13;;;5.63;;
35294;SDS011;21413;48.032;7.764;2023-03-17T01:17:46;6.03;;;5.47;;
35294;SDS011;21413;48.032;7.764;2023-03-17T01:20:23;5.55;;;5.05;;
35294;SDS011;21413;48.032;7.764;2023-03-17T01:22:50;8.63;;;4.85;;
35294;SDS011;21413;48.032;7.764;2023-03-17T01:25:19;5.88;;;5.47;;
35294;SDS011;21413;48.032;7.764;2023-03-17T01:27:45;5.60;;;5.10;;
35294;SDS011;21413;48.032;7.764;2023-03-17T01:32:38;14.23;;;5.50;;
35294;SDS011;21413;48.032;7.764;2023-03-17T01:35:04;5.00;;;4.60;;
35294;SDS011;21413;48.032;7.764;2023-03-17T01:37:30;5.95;;;4.93;;
35294;SDS011;21413;48.032;7.764;2023-03-17T01:39:56;5.13;;;4.82;;
35294;SDS011;21413;48.032;7.764;2023-03-17T01:42:23;4.55;;;4.10;;
35294;SDS011;21413;48.032;7.764;2023-03-17T01:44:58;5.30;;;4.90;;
35294;SDS011;21413;48.032;7.764;2023-03-17T01:47:26;4.88;;;4.43;;
35294;SDS011;21413;48.032;7.764;2023-03-17T01:49:56;4.57;;;4.37;;
35294;SDS011;21413;48.032;7.764;2023-03-17T01:52:24;7.68;;;5.22;;
35294;SDS011;21413;48.032;7.764;2023-03-17T01:59:57;5.40;;;4.90;;
35294;SDS011;21413;48.032;7.764;2023-03-17T02:02:27;5.50;;;4.78;;
35294;SDS011;21413;48.032;7.764;2023-03-17T02:04:54;4.82;;;4.55;;
35294;SDS011;21413;48.032;7.764;2023-03-17T02:07:24;5.30;;;4.80;;
35294;SDS011;21413;48.032;7.764;2023-03-17T02:09:51;4.97;;;4.47;;
35294;SDS011;21413;48.032;7.764;2023-03-17T02:12:21;5.63;;;5.32;;
35294;SDS011;21413;48.032;7.764;2023-03-17T02:14:48;5.30;;;4.90;;
35294;SDS011;21413;48.032;7.764;2023-03-17T02:17:15;5.15;;;4.75;;
35294;SDS011;21413;48.032;7.764;2023-03-17T02:19:41;5.20;;;4.80;;
35294;SDS011;21413;48.032;7.764;2023-03-17T02:22:07;6.07;;;5.40;;
35294;SDS011;21413;48.032;7.764;2023-03-17T02:27:11;5.00;;;4.70;;
35294;SDS011;21413;48.032;7.764;2023-03-17T02:29:39;7.43;;;4.70;;
35294;SDS011;21413;48.032;7.764;2023-03-17T02:32:05;5.30;;;5.00;;
35294;SDS011;21413;48.032;7.764;2023-03-17T02:34:32;5.40;;;5.00;;
35294;SDS011;21413;48.032;7.764;2023-03-17T02:36:58;5.68;;;5.30;;
35294;SDS011;21413;48.032;7.764;2023-03-17T02:39:24;7.63;;;5.00;;
35294;SDS011;21413;48.032;7.764;2023-03-17T02:41:50;5.30;;;5.00;;
35294;SDS011;21413;48.032;7.764;2023-03-17T02:44:17;7.90;;;5.53;;
35294;SDS011;21413;48.032;7.764;2023-03-17T02:46:43;5.20;;;4.90;;
35294;SDS011;21413;48.032;7.764;2023-03-17T02:49:09;5.43;;;4.93;;
35294;SDS011;21413;48.032;7.764;2023-03-17T02:51:38;5.95;;;4.72;;
35294;SDS011;21413;48.032;7.764;2023-03-17T02:54:04;8.80;;;5.00;;
35294;SDS011;21413;48.032;7.764;2023-03-17T02:56:30;5.10;;;4.80;;
35294;SDS011;21413;48.032;7.764;2023-03-17T02:58:58;4.55;;;4.22;;
35294;SDS011;21413;48.032;7.764;2023-03-17T03:01:24;4.05;;;3.88;;
35294;SDS011;21413;48.032;7.764;2023-03-17T03:03:51;5.38;;;4.95;;
35294;SDS011;21413;48.032;7.764;2023-03-17T03:06:17;4.57;;;4.28;;
35294;SDS011;21413;48.032;7.764;2023-03-17T03:08:45;4.88;;;4.53;;
35294;SDS011;21413;48.032;7.764;2023-03-17T03:11:14;5.32;;;4.90;;
35294;SDS011;21413;48.032;7.764;2023-03-17T03:13:40;5.18;;;4.88;;
35294;SDS011;21413;48.032;7.764;2023-03-17T03:16:06;7.82;;;5.00;;
35294;SDS011;21413;48.032;7.764;2023-03-17T03:18:33;5.50;;;5.00;;
35294;SDS011;21413;48.032;7.764;2023-03-17T03:20:59;5.87;;;4.47;;
35294;SDS011;21413;48.032;7.764;2023-03-17T03:23:25;4.63;;;4.35;;
35294;SDS011;21413;48.032;7.764;2023-03-17T03:25:53;8.48;;;4.70;;
35294;SDS011;21413;48.032;7.764;2023-03-17T03:28:22;5.28;;;4.30;;
35294;SDS011;21413;48.032;7.764;2023-03-17T03:30:48;4.82;;;4.35;;
35294;SDS011;21413;48.032;7.764;2023-03-17T03:33:19;7.70;;;5.30;;
35294;SDS011;21413;48.032;7.764;2023-03-17T03:35:45;5.50;;;5.00;;
35294;SDS011;21413;48.032;7.764;2023-03-17T03:38:12;4.97;;;4.65;;
35294;SDS011;21413;48.032;7.764;2023-03-17T03:40:38;5.50;;;5.10;;
35294;SDS011;21413;48.032;7.764;2023-03-17T03:43:04;5.50;;;4.80;;
35294;SDS011;21413;48.032;7.764;2023-03-17T03:45:30;4.68;;;4.45;;
35294;SDS011;21413;48.032;7.764;2023-03-17T03:47:57;8.98;;;4.70;;
35294;SDS011;21413;48.032;7.764;2023-03-17T03:50:25;5.00;;;4.70;;
35294;SDS011;21413;48.032;7.764;2023-03-17T03:52:51;5.10;;;4.80;;
35294;SDS011;21413;48.032;7.764;2023-03-17T03:55:17;4.97;;;4.47;;
35294;SDS011;21413;48.032;7.764;2023-03-17T03:57:43;4.68;;;4.40;;
35294;SDS011;21413;48.032;7.764;2023-03-17T04:00:09;6.50;;;4.88;;
35294;SDS011;21413;48.032;7.764;2023-03-17T04:02:37;6.22;;;5.10;;
35294;SDS011;21413;48.032;7.764;2023-03-17T04:05:08;5.32;;;4.90;;
35294;SDS011;21413;48.032;7.764;2023-03-17T04:07:35;5.00;;;4.70;;
35294;SDS011;21413;48.032;7.764;2023-03-17T04:10:01;5.13;;;4.72;;
35294;SDS011;21413;48.032;7.764;2023-03-17T04:12:28;4.70;;;4.40;;
35294;SDS011;21413;48.032;7.764;2023-03-17T04:14:56;5.57;;;5.15;;
35294;SDS011;21413;48.032;7.764;2023-03-17T04:17:25;5.65;;;5.15;;
35294;SDS011;21413;48.032;7.764;2023-03-17T04:19:53;5.15;;;4.82;;
35294;SDS011;21413;48.032;7.764;2023-03-17T04:22:20;5.25;;;4.82;;
35294;SDS011;21413;48.032;7.764;2023-03-17T04:24:46;5.80;;;5.25;;
35294;SDS011;21413;48.032;7.764;2023-03-17T04:27:14;4.30;;;4.00;;
35294;SDS011;21413;48.032;7.764;2023-03-17T04:29:41;4.57;;;4.22;;
35294;SDS011;21413;48.032;7.764;2023-03-17T04:32:08;4.45;;;4.25;;
35294;SDS011;21413;48.032;7.764;2023-03-17T04:34:34;4.88;;;4.30;;
35294;SDS011;21413;48.032;7.764;2023-03-17T04:37:02;5.15;;;4.15;;
35294;SDS011;21413;48.032;7.764;2023-03-17T04:39:30;12.67;;;4.57;;
35294;SDS011;21413;48.032;7.764;2023-03-17T04:41:56;9.90;;;5.10;;
35294;SDS011;21413;48.032;7.764;2023-03-17T04:44:22;6.47;;;4.78;;
35294;SDS011;21413;48.032;7.764;2023-03-17T04:46:48;6.23;;;4.90;;
35294;SDS011;21413;48.032;7.764;2023-03-17T04:49:14;4.83;;;4.50;;
35294;SDS011;21413;48.032;7.764;2023-03-17T04:51:40;4.70;;;4.40;;
35294;SDS011;21413;48.032;7.764;2023-03-17T04:54:06;4.60;;;4.40;;
35294;SDS011;21413;48.032;7.764;2023-03-17T04:56:32;4.90;;;4.53;;
35294;SDS011;21413;48.032;7.764;2023-03-17T04:58:58;5.00;;;4.60;;
35294;SDS011;21413;48.032;7.764;2023-03-17T05:01:25;5.28;;;4.88;;
35294;SDS011;21413;48.032;7.764;2023-03-17T05:03:51;4.72;;;4.53;;
35294;SDS011;21413;48.032;7.764;2023-03-17T05:06:17;4.28;;;4.13;;
35294;SDS011;21413;48.032;7.764;2023-03-17T05:08:43;7.28;;;3.80;;
35294;SDS011;21413;48.032;7.764;2023-03-17T05:11:09;10.38;;;7.18;;
35294;SDS011;21413;48.032;7.764;2023-03-17T05:13:38;10.30;;;8.25;;
35294;SDS011;21413;48.032;7.764;2023-03-17T05:16:05;8.45;;;7.65;;
35294;SDS011;21413;48.032;7.764;2023-03-17T05:18:31;16.73;;;7.60;;
35294;SDS011;21413;48.032;7.764;2023-03-17T05:20:58;9.10;;;8.20;;
35294;SDS011;21413;48.032;7.764;2023-03-17T05:23:24;60.50;;;37.90;;
35294;SDS011;21413;48.032;7.764;2023-03-17T05:25:50;35.80;;;27.02;;
35294;SDS011;21413;48.032;7.764;2023-03-17T05:28:17;9.10;;;8.20;;
35294;SDS011;21413;48.032;7.764;2023-03-17T05:30:43;7.35;;;6.75;;
35294;SDS011;21413;48.032;7.764;2023-03-17T05:33:10;15.40;;;13.63;;
35294;SDS011;21413;48.032;7.764;2023-03-17T05:35:36;10.60;;;9.52;;
35294;SDS011;21413;48.032;7.764;2023-03-17T05:38:02;5.22;;;4.72;;
35294;SDS011;21413;48.032;7.764;2023-03-17T05:40:28;4.43;;;4.13;;
35294;SDS011;21413;48.032;7.764;2023-03-17T05:42:54;4.30;;;4.00;;
35294;SDS011;21413;48.032;7.764;2023-03-17T05:45:20;5.13;;;4.72;;
35294;SDS011;21413;48.032;7.764;2023-03-17T05:47:46;5.07;;;4.30;;
35294;SDS011;21413;48.032;7.764;2023-03-17T05:50:12;4.77;;;4.47;;
35294;SDS011;21413;48.032;7.764;2023-03-17T05:52:38;6.70;;;5.68;;
35294;SDS011;21413;48.032;7.764;2023-03-17T05:55:05;9.15;;;8.25;;
35294;SDS011;21413;48.032;7.764;2023-03-17T06:00:55;8.65;;;5.93;;
35294;SDS011;21413;48.032;7.764;2023-03-17T06:03:20;4.15;;;3.95;;
35294;SDS011;21413;48.032;7.764;2023-03-17T06:05:47;5.30;;;4.87;;
35294;SDS011;21413;48.032;7.764;2023-03-17T06:08:13;4.85;;;4.35;;
35294;SDS011;21413;48.032;7.764;2023-03-17T06:10:39;5.30;;;4.80;;
35294;SDS011;21413;48.032;7.764;2023-03-17T06:13:06;3.78;;;3.58;;
35294;SDS011;21413;48.032;7.764;2023-03-17T06:15:32;4.35;;;3.90;;
35294;SDS011;21413;48.032;7.764;2023-03-17T06:18:00;4.00;;;3.80;;
35294;SDS011;21413;48.032;7.764;2023-03-17T06:20:29;5.50;;;5.10;;
35294;SDS011;21413;48.032;7.764;2023-03-17T06:22:55;5.10;;;4.47;;
35294;SDS011;21413;48.032;7.764;2023-03-17T06:25:21;6.37;;;5.90;;
35294;SDS011;21413;48.032;7.764;2023-03-17T06:27:47;7.47;;;6.88;;
35294;SDS011;21413;48.032;7.764;2023-03-17T06:30:17;10.25;;;8.05;;
35294;SDS011;21413;48.032;7.764;2023-03-17T06:32:45;7.03;;;6.38;;
35294;SDS011;21413;48.032;7.764;2023-03-17T06:35:14;7.68;;;6.90;;
35294;SDS011;21413;48.032;7.764;2023-03-17T06:37:40;5.87;;;5.43;;
35294;SDS011;21413;48.032;7.764;2023-03-17T06:40:06;7.93;;;5.18;;
35294;SDS011;21413;48.032;7.764;2023-03-17T06:42:36;5.22;;;4.70;;
35294;SDS011;21413;48.032;7.764;2023-03-17T06:45:04;9.30;;;4.60;;
35294;SDS011;21413;48.032;7.764;2023-03-17T06:47:30;5.22;;;4.45;;
35294;SDS011;21413;48.032;7.764;2023-03-17T06:49:58;9.65;;;4.80;;
35294;SDS011;21413;48.032;7.764;2023-03-17T06:52:24;5.80;;;5.50;;
35294;SDS011;21413;48.032;7.764;2023-03-17T06:54:50;6.40;;;5.80;;
35294;SDS011;21413;48.032;7.764;2023-03-17T06:57:16;8.70;;;6.47;;
35294;SDS011;21413;48.032;7.764;2023-03-17T06:59:42;15.87;;;9.80;;
35294;SDS011;21413;48.032;7.764;2023-03-17T07:02:09;26.40;;;15.73;;
35294;SDS011;21413;48.032;7.764;2023-03-17T07:04:38;23.23;;;15.13;;
35294;SDS011;21413;48.032;7.764;2023-03-17T07:07:04;13.40;;;9.63;;
35294;SDS011;21413;48.032;7.764;2023-03-17T07:09:34;6.35;;;5.72;;
35294;SDS011;21413;48.032;7.764;2023-03-17T07:12:01;4.70;;;4.43;;
35294;SDS011;21413;48.032;7.764;2023-03-17T07:14:33;5.20;;;4.80;;
35294;SDS011;21413;48.032;7.764;2023-03-17T07:17:00;5.10;;;4.78;;
35294;SDS011;21413;48.032;7.764;2023-03-17T07:19:26;7.70;;;4.80;;
35294;SDS011;21413;48.032;7.764;2023-03-17T07:21:52;4.33;;;4.00;;
35294;SDS011;21413;48.032;7.764;2023-03-17T07:24:20;4.27;;;4.07;;
35294;SDS011;21413;48.032;7.764;2023-03-17T07:26:48;4.50;;;4.10;;
35294;SDS011;21413;48.032;7.764;2023-03-17T07:29:14;3.90;;;3.70;;
35294;SDS011;21413;48.032;7.764;2023-03-17T07:31:41;5.27;;;4.30;;
35294;SDS011;21413;48.032;7.764;2023-03-17T07:34:10;5.20;;;4.90;;
35294;SDS011;21413;48.032;7.764;2023-03-17T07:36:36;5.07;;;4.67;;
35294;SDS011;21413;48.032;7.764;2023-03-17T07:39:02;5.70;;;5.40;;
35294;SDS011;21413;48.032;7.764;2023-03-17T07:41:29;7.27;;;5.97;;
35294;SDS011;21413;48.032;7.764;2023-03-17T07:43:55;5.13;;;4.87;;
35294;SDS011;21413;48.032;7.764;2023-03-17T07:46:21;5.70;;;5.30;;
35294;SDS011;21413;48.032;7.764;2023-03-17T07:48:47;7.87;;;5.30;;
35294;SDS011;21413;48.032;7.764;2023-03-17T07:51:15;6.57;;;5.33;;
35294;SDS011;21413;48.032;7.764;2023-03-17T07:53:41;6.07;;;5.57;;
35294;SDS011;21413;48.032;7.764;2023-03-17T07:56:09;7.63;;;6.93;;
35294;SDS011;21413;48.032;7.764;2023-03-17T07:58:35;6.03;;;5.20;;
35294;SDS011;21413;48.032;7.764;2023-03-17T08:01:02;6.63;;;5.67;;
35294;SDS011;21413;48.032;7.764;2023-03-17T08:03:29;6.13;;;5.53;;
35294;SDS011;21413;48.032;7.764;2023-03-17T08:05:55;6.77;;;6.27;;
35294;SDS011;21413;48.032;7.764;2023-03-17T08:08:22;8.73;;;6.90;;
35294;SDS011;21413;48.032;7.764;2023-03-17T08:10:49;5.50;;;4.87;;
35294;SDS011;21413;48.032;7.764;2023-03-17T08:13:15;6.60;;;6.10;;
35294;SDS011;21413;48.032;7.764;2023-03-17T08:15:41;6.23;;;5.83;;
35294;SDS011;21413;48.032;7.764;2023-03-17T08:18:09;7.00;;;6.40;;
35294;SDS011;21413;48.032;7.764;2023-03-17T08:20:36;6.50;;;6.00;;
35294;SDS011;21413;48.032;7.764;2023-03-17T08:23:03;6.40;;;5.80;;
35294;SDS011;21413;48.032;7.764;2023-03-17T08:25:29;7.00;;;5.47;;
35294;SDS011;21413;48.032;7.764;2023-03-17T08:27:58;7.27;;;5.27;;
35294;SDS011;21413;48.032;7.764;2023-03-17T08:30:27;7.50;;;6.13;;
35294;SDS011;21413;48.032;7.764;2023-03-17T08:32:53;6.80;;;5.83;;
35294;SDS011;21413;48.032;7.764;2023-03-17T08:35:19;6.70;;;6.10;;
35294;SDS011;21413;48.032;7.764;2023-03-17T08:37:47;6.10;;;5.70;;
35294;SDS011;21413;48.032;7.764;2023-03-17T08:40:14;7.13;;;6.10;;
35294;SDS011;21413;48.032;7.764;2023-03-17T08:42:41;6.37;;;5.87;;
35294;SDS011;21413;48.032;7.764;2023-03-17T08:45:07;7.17;;;6.57;;
35294;SDS011;21413;48.032;7.764;2023-03-17T08:47:35;6.70;;;6.20;;
35294;SDS011;21413;48.032;7.764;2023-03-17T08:50:02;7.00;;;6.43;;
35294;SDS011;21413;48.032;7.764;2023-03-17T08:52:29;7.93;;;6.27;;
35294;SDS011;21413;48.032;7.764;2023-03-17T08:54:55;11.30;;;6.30;;
35294;SDS011;21413;48.032;7.764;2023-03-17T08:57:21;7.03;;;6.53;;
35294;SDS011;21413;48.032;7.764;2023-03-17T08:59:48;6.90;;;6.30;;
35294;SDS011;21413;48.032;7.764;2023-03-17T09:02:14;8.10;;;6.80;;
35294;SDS011;21413;48.032;7.764;2023-03-17T09:04:41;6.53;;;6.13;;
35294;SDS011;21413;48.032;7.764;2023-03-17T09:07:07;9.63;;;7.23;;
35294;SDS011;21413;48.032;7.764;2023-03-17T09:09:34;11.43;;;7.20;;
35294;SDS011;21413;48.032;7.764;2023-03-17T09:12:01;7.33;;;6.73;;
35294;SDS011;21413;48.032;7.764;2023-03-17T09:14:28;7.33;;;6.73;;
35294;SDS011;21413;48.032;7.764;2023-03-17T09:16:56;7.03;;;6.40;;
35294;SDS011;21413;48.032;7.764;2023-03-17T09:19:22;11.53;;;7.30;;
35294;SDS011;21413;48.032;7.764;2023-03-17T09:21:48;7.10;;;6.40;;
35294;SDS011;21413;48.032;7.764;2023-03-17T09:24:18;6.03;;;5.63;;
35294;SDS011;21413;48.032;7.764;2023-03-17T09:26:44;13.03;;;6.90;;
35294;SDS011;21413;48.032;7.764;2023-03-17T09:29:10;6.77;;;6.27;;
35294;SDS011;21413;48.032;7.764;2023-03-17T09:31:37;7.73;;;7.03;;
35294;SDS011;21413;48.032;7.764;2023-03-17T09:34:03;7.23;;;6.40;;
35294;SDS011;21413;48.032;7.764;2023-03-17T09:36:30;7.50;;;6.77;;
35294;SDS011;21413;48.032;7.764;2023-03-17T09:38:57;6.60;;;6.20;;
35294;SDS011;21413;48.032;7.764;2023-03-17T09:49:08;7.03;;;6.47;;
35294;SDS011;21413;48.032;7.764;2023-03-17T09:51:36;7.60;;;7.03;;
35294;SDS011;21413;48.032;7.764;2023-03-17T09:54:03;7.17;;;6.57;;
35294;SDS011;21413;48.032;7.764;2023-03-17T09:56:32;10.63;;;7.00;;
35294;SDS011;21413;48.032;7.764;2023-03-17T10:02:00;7.33;;;6.50;;
35294;SDS011;21413;48.032;7.764;2023-03-17T10:04:26;7.07;;;6.47;;
35294;SDS011;21413;48.032;7.764;2023-03-17T10:06:56;14.13;;;7.07;;
35294;SDS011;21413;48.032;7.764;2023-03-17T10:09:32;8.53;;;7.77;;
35294;SDS011;21413;48.032;7.764;2023-03-17T10:12:03;8.40;;;7.20;;
35294;SDS011;21413;48.032;7.764;2023-03-17T10:14:53;9.60;;;7.00;;
35294;SDS011;21413;48.032;7.764;2023-03-17T10:17:21;6.53;;;6.00;;
35294;SDS011;21413;48.032;7.764;2023-03-17T10:22:25;6.67;;;5.80;;
35294;SDS011;21413;48.032;7.764;2023-03-17T10:24:56;8.60;;;5.97;;
35294;SDS011;21413;48.032;7.764;2023-03-17T10:27:22;7.27;;;6.60;;
35294;SDS011;21413;48.032;7.764;2023-03-17T10:29:48;7.93;;;6.03;;
35294;SDS011;21413;48.032;7.764;2023-03-17T10:32:14;7.20;;;6.50;;
35294;SDS011;21413;48.032;7.764;2023-03-17T10:34:41;6.70;;;6.10;;
35294;SDS011;21413;48.032;7.764;2023-03-17T10:37:16;6.47;;;5.90;;
35294;SDS011;21413;48.032;7.764;2023-03-17T10:39:50;5.20;;;4.70;;
35294;SDS011;21413;48.032;7.764;2023-03-17T10:44:55;5.70;;;5.30;;
35294;SDS011;21413;48.032;7.764;2023-03-17T10:47:46;8.00;;;5.00;;
35294;SDS011;21413;48.032;7.764;2023-03-17T10:50:23;4.63;;;4.33;;
35294;SDS011;21413;48.032;7.764;2023-03-17T10:52:55;8.30;;;4.40;;
35294;SDS011;21413;48.032;7.764;2023-03-17T10:55:25;4.67;;;4.47;;
35294;SDS011;21413;48.032;7.764;2023-03-17T10:58:13;6.30;;;5.70;;
35294;SDS011;21413;48.032;7.764;2023-03-17T11:00:39;5.77;;;5.30;;
35294;SDS011;21413;48.032;7.764;2023-03-17T11:03:15;5.07;;;4.70;;
35294;SDS011;21413;48.032;7.764;2023-03-17T11:05:53;5.10;;;4.60;;
35294;SDS011;21413;48.032;7.764;2023-03-17T11:08:19;4.73;;;4.40;;
35294;SDS011;21413;48.032;7.764;2023-03-17T11:10:47;5.40;;;4.50;;
35294;SDS011;21413;48.032;7.764;2023-03-17T11:13:18;6.07;;;5.47;;
35294;SDS011;21413;48.032;7.764;2023-03-17T11:16:07;5.33;;;4.80;;
35294;SDS011;21413;48.032;7.764;2023-03-17T11:18:33;5.47;;;5.13;;
35294;SDS011;21413;48.032;7.764;2023-03-17T11:21:10;10.70;;;5.33;;
35294;SDS011;21413;48.032;7.764;2023-03-17T11:23:40;4.20;;;3.90;;
35294;SDS011;21413;48.032;7.764;2023-03-17T11:26:13;4.77;;;4.43;;
35294;SDS011;21413;48.032;7.764;2023-03-17T11:28:44;3.47;;;3.37;;
35294;SDS011;21413;48.032;7.764;2023-03-17T11:31:16;4.63;;;4.27;;
35294;SDS011;21413;48.032;7.764;2023-03-17T11:39:10;4.50;;;4.20;;
35294;SDS011;21413;48.032;7.764;2023-03-17T11:44:29;4.50;;;4.30;;
35294;SDS011;21413;48.032;7.764;2023-03-17T11:47:07;7.43;;;4.30;;
35294;SDS011;21413;48.032;7.764;2023-03-17T11:49:37;5.33;;;4.57;;
35294;SDS011;21413;48.032;7.764;2023-03-17T11:52:06;5.40;;;4.33;;
35294;SDS011;21413;48.032;7.764;2023-03-17T11:57:11;4.27;;;3.90;;
35294;SDS011;21413;48.032;7.764;2023-03-17T12:04:54;3.73;;;3.53;;
35294;SDS011;21413;48.032;7.764;2023-03-17T12:07:22;3.83;;;3.63;;
35294;SDS011;21413;48.032;7.764;2023-03-17T12:10:34;4.27;;;3.90;;
35294;SDS011;21413;48.032;7.764;2023-03-17T12:12:43;3.53;;;3.40;;
35294;SDS011;21413;48.032;7.764;2023-03-17T12:15:13;4.00;;;3.80;;
35294;SDS011;21413;48.032;7.764;2023-03-17T12:17:46;3.90;;;3.70;;
35294;SDS011;21413;48.032;7.764;2023-03-17T12:20:17;3.97;;;3.47;;
35294;SDS011;21413;48.032;7.764;2023-03-17T12:22:46;3.20;;;3.10;;
35294;SDS011;21413;48.032;7.764;2023-03-17T12:25:18;3.57;;;3.33;;
35294;SDS011;21413;48.032;7.764;2023-03-17T12:30:23;4.93;;;3.20;;
35294;SDS011;21413;48.032;7.764;2023-03-17T12:35:24;4.53;;;4.23;;
35294;SDS011;21413;48.032;7.764;2023-03-17T12:37:52;6.47;;;5.93;;
35294;SDS011;21413;48.032;7.764;2023-03-17T12:40:21;7.63;;;7.00;;
35294;SDS011;21413;48.032;7.764;2023-03-17T12:55:40;4.10;;;3.90;;
35294;SDS011;21413;48.032;7.764;2023-03-17T12:58:27;4.90;;;4.40;;
35294;SDS011;21413;48.032;7.764;2023-03-17T13:06:44;5.80;;;4.10;;
35294;SDS011;21413;48.032;7.764;2023-03-17T13:11:53;4.50;;;4.20;;
35294;SDS011;21413;48.032;7.764;2023-03-17T13:14:40;5.67;;;3.87;;
35294;SDS011;21413;48.032;7.764;2023-03-17T13:29:57;3.70;;;3.40;;
35294;SDS011;21413;48.032;7.764;2023-03-17T13:37:29;3.10;;;2.90;;
35294;SDS011;21413;48.032;7.764;2023-03-17T13:47:48;2.83;;;2.73;;
35294;SDS011;21413;48.032;7.764;2023-03-17T14:00:29;3.33;;;2.77;;
35294;SDS011;21413;48.032;7.764;2023-03-17T14:05:32;2.37;;;2.27;;
35294;SDS011;21413;48.032;7.764;2023-03-17T14:08:07;1.60;;;1.60;;
35294;SDS011;21413;48.032;7.764;2023-03-17T14:10:40;8.43;;;1.53;;
35294;SDS011;21413;48.032;7.764;2023-03-17T14:13:12;2.30;;;2.20;;
35294;SDS011;21413;48.032;7.764;2023-03-17T14:18:18;8.70;;;2.50;;
35294;SDS011;21413;48.032;7.764;2023-03-17T14:20:51;6.60;;;3.33;;
35294;SDS011;21413;48.032;7.764;2023-03-17T14:23:17;7.70;;;3.87;;
35294;SDS011;21413;48.032;7.764;2023-03-17T14:25:43;2.27;;;2.17;;
35294;SDS011;21413;48.032;7.764;2023-03-17T14:28:11;2.37;;;2.17;;
35294;SDS011;21413;48.032;7.764;2023-03-17T14:30:47;2.13;;;2.03;;
35294;SDS011;21413;48.032;7.764;2023-03-17T14:33:22;5.97;;;2.27;;
35294;SDS011;21413;48.032;7.764;2023-03-17T14:35:50;5.17;;;4.20;;
35294;SDS011;21413;48.032;7.764;2023-03-17T14:38:21;2.73;;;2.63;;
35294;SDS011;21413;48.032;7.764;2023-03-17T14:40:58;4.23;;;2.60;;
35294;SDS011;21413;48.032;7.764;2023-03-17T14:43:24;3.47;;;2.30;;
35294;SDS011;21413;48.032;7.764;2023-03-17T14:45:51;2.63;;;1.53;;
35294;SDS011;21413;48.032;7.764;2023-03-17T14:48:22;2.70;;;1.77;;
35294;SDS011;21413;48.032;7.764;2023-03-17T14:50:59;9.00;;;1.70;;
35294;SDS011;21413;48.032;7.764;2023-03-17T14:53:39;2.07;;;1.90;;
35294;SDS011;21413;48.032;7.764;2023-03-17T14:56:09;1.80;;;1.70;;
35294;SDS011;21413;48.032;7.764;2023-03-17T14:58:36;2.00;;;1.83;;
35294;SDS011;21413;48.032;7.764;2023-03-17T15:01:11;4.00;;;1.70;;
35294;SDS011;21413;48.032;7.764;2023-03-17T15:03:50;1.43;;;1.37;;
35294;SDS011;21413;48.032;7.764;2023-03-17T15:06:26;3.27;;;1.90;;
35294;SDS011;21413;48.032;7.764;2023-03-17T15:08:56;1.67;;;1.57;;
35294;SDS011;21413;48.032;7.764;2023-03-17T15:11:24;6.63;;;2.60;;
35294;SDS011;21413;48.032;7.764;2023-03-17T15:13:54;8.90;;;2.87;;
35294;SDS011;21413;48.032;7.764;2023-03-17T15:16:28;6.67;;;3.73;;
35294;SDS011;21413;48.032;7.764;2023-03-17T15:19:06;2.80;;;2.60;;
35294;SDS011;21413;48.032;7.764;2023-03-17T15:21:39;4.37;;;2.23;;
35294;SDS011;21413;48.032;7.764;2023-03-17T15:26:57;1.70;;;1.50;;
35294;SDS011;21413;48.032;7.764;2023-03-17T15:29:23;1.43;;;1.17;;
35294;SDS011;21413;48.032;7.764;2023-03-17T15:31:49;1.97;;;1.87;;
35294;SDS011;21413;48.032;7.764;2023-03-17T15:34:15;1.40;;;1.30;;
35294;SDS011;21413;48.032;7.764;2023-03-17T15:36:41;5.70;;;1.20;;
35294;SDS011;21413;48.032;7.764;2023-03-17T15:39:11;1.63;;;1.33;;
35294;SDS011;21413;48.032;7.764;2023-03-17T15:41:37;1.30;;;1.30;;
35294;SDS011;21413;48.032;7.764;2023-03-17T15:44:03;3.27;;;1.43;;
35294;SDS011;21413;48.032;7.764;2023-03-17T15:46:30;2.93;;;1.87;;
35294;SDS011;21413;48.032;7.764;2023-03-17T15:48:57;2.70;;;1.30;;
35294;SDS011;21413;48.032;7.764;2023-03-17T15:51:23;2.87;;;1.40;;
35294;SDS011;21413;48.032;7.764;2023-03-17T15:53:51;1.60;;;1.50;;
35294;SDS011;21413;48.032;7.764;2023-03-17T15:56:18;1.40;;;1.40;;
35294;SDS011;21413;48.032;7.764;2023-03-17T15:58:47;3.43;;;1.33;;
35294;SDS011;21413;48.032;7.764;2023-03-17T16:01:16;3.17;;;2.90;;
35294;SDS011;21413;48.032;7.764;2023-03-17T16:03:42;4.50;;;1.40;;
35294;SDS011;21413;48.032;7.764;2023-03-17T16:06:17;5.60;;;1.40;;
35294;SDS011;21413;48.032;7.764;2023-03-17T16:08:47;1.20;;;1.10;;
35294;SDS011;21413;48.032;7.764;2023-03-17T16:11:14;6.83;;;1.33;;
35294;SDS011;21413;48.032;7.764;2023-03-17T16:13:41;3.70;;;1.27;;
35294;SDS011;21413;48.032;7.764;2023-03-17T16:16:09;3.00;;;1.50;;
35294;SDS011;21413;48.032;7.764;2023-03-17T16:18:39;1.67;;;1.10;;
35294;SDS011;21413;48.032;7.764;2023-03-17T16:21:06;1.20;;;1.10;;
35294;SDS011;21413;48.032;7.764;2023-03-17T16:23:33;6.57;;;1.50;;
35294;SDS011;21413;48.032;7.764;2023-03-17T16:25:59;2.67;;;1.00;;
35294;SDS011;21413;48.032;7.764;2023-03-17T16:28:27;1.40;;;1.30;;
35294;SDS011;21413;48.032;7.764;2023-03-17T16:30:54;1.70;;;1.33;;
35294;SDS011;21413;48.032;7.764;2023-03-17T16:35:49;1.30;;;1.30;;
35294;SDS011;21413;48.032;7.764;2023-03-17T16:38:21;1.53;;;0.93;;
35294;SDS011;21413;48.032;7.764;2023-03-17T16:40:48;1.10;;;1.10;;
35294;SDS011;21413;48.032;7.764;2023-03-17T16:43:18;1.57;;;1.47;;
35294;SDS011;21413;48.032;7.764;2023-03-17T16:45:45;1.20;;;1.20;;
35294;SDS011;21413;48.032;7.764;2023-03-17T16:48:13;2.33;;;1.40;;
35294;SDS011;21413;48.032;7.764;2023-03-17T16:50:39;2.00;;;1.80;;
35294;SDS011;21413;48.032;7.764;2023-03-17T16:53:06;1.40;;;1.30;;